sensor_id;sensor_type;location;lat;lon;timestamp;temperature;humidity
56137;DHT22;42008;52.934;5.884;2023-02-12T00:01:42;4.30;99.90
56137;DHT22;42008;52.934;5.884;2023-02-12T00:04:08;3.70;99.90
56137;DHT22;42008;52.934;5.884;2023-02-12T00:06:33;3.10;99.90
56137;DHT22;42008;52.934;5.884;2023-02-12T00:08:59;4.10;99.90
56137;DHT22;42008;52.934;5.884;2023-02-12T00:11:27;4.40;1.00
56137;DHT22;42008;52.934;5.884;2023-02-12T00:13:54;3.60;1.00
56137;DHT22;42008;52.934;5.884;2023-02-12T00:16:22;4.60;1.00
56137;DHT22;42008;52.934;5.884;2023-02-12T00:18:51;3.50;1.00
56137;DHT22;42008;52.934;5.884;2023-02-12T00:21:17;4.00;1.00
56137;DHT22;42008;52.934;5.884;2023-02-12T00:23:43;3.20;1.00
56137;DHT22;42008;52.934;5.884;2023-02-12T00:26:11;3.20;1.00
56137;DHT22;42008;52.934;5.884;2023-02-12T00:28:37;3.30;1.00
56137;DHT22;42008;52.934;5.884;2023-02-12T00:31:08;3.70;1.00
56137;DHT22;42008;52.934;5.884;2023-02-12T00:33:33;3.30;1.00
56137;DHT22;42008;52.934;5.884;2023-02-12T00:35:59;4.70;1.00
56137;DHT22;42008;52.934;5.884;2023-02-12T00:38:24;4.50;1.00
56137;DHT22;42008;52.934;5.884;2023-02-12T00:40:50;4.20;1.00
56137;DHT22;42008;52.934;5.884;2023-02-12T00:43:16;4.60;1.00
56137;DHT22;42008;52.934;5.884;2023-02-12T00:45:43;3.30;1.00
56137;DHT22;42008;52.934;5.884;2023-02-12T00:48:09;4.80;1.00
56137;DHT22;42008;52.934;5.884;2023-02-12T00:50:35;4.50;1.00
56137;DHT22;42008;52.934;5.884;2023-02-12T00:53:00;3.60;1.00
56137;DHT22;42008;52.934;5.884;2023-02-12T00:55:26;3.60;1.00
56137;DHT22;42008;52.934;5.884;2023-02-12T00:57:52;4.80;1.00
56137;DHT22;42008;52.934;5.884;2023-02-12T01:00:17;4.10;1.00
56137;DHT22;42008;52.934;5.884;2023-02-12T01:02:43;4.90;1.00
56137;DHT22;42008;52.934;5.884;2023-02-12T01:05:08;4.10;1.00
56137;DHT22;42008;52.934;5.884;2023-02-12T01:07:34;5.00;1.00
56137;DHT22;42008;52.934;5.884;2023-02-12T01:10:00;4.60;1.00
56137;DHT22;42008;52.934;5.884;2023-02-12T01:12:25;4.00;1.00
56137;DHT22;42008;52.934;5.884;2023-02-12T01:14:51;3.40;1.00
56137;DHT22;42008;52.934;5.884;2023-02-12T01:17:16;5.00;1.00
56137;DHT22;42008;52.934;5.884;2023-02-12T01:19:42;4.50;1.00
56137;DHT22;42008;52.934;5.884;2023-02-12T01:22:07;3.60;1.00
56137;DHT22;42008;52.934;5.884;2023-02-12T01:24:33;4.80;1.00
56137;DHT22;42008;52.934;5.884;2023-02-12T01:26:59;4.30;1.00
56137;DHT22;42008;52.934;5.884;2023-02-12T01:29:24;4.70;1.00
56137;DHT22;42008;52.934;5.884;2023-02-12T01:31:50;4.70;1.00
56137;DHT22;42008;52.934;5.884;2023-02-12T01:34:15;4.30;1.00
56137;DHT22;42008;52.934;5.884;2023-02-12T01:36:41;4.40;1.00
56137;DHT22;42008;52.934;5.884;2023-02-12T01:39:06;4.40;1.00
56137;DHT22;42008;52.934;5.884;2023-02-12T01:41:35;4.80;1.00
56137;DHT22;42008;52.934;5.884;2023-02-12T01:44:20;4.60;1.00
56137;DHT22;42008;52.934;5.884;2023-02-12T01:46:57;3.90;1.00
56137;DHT22;42008;52.934;5.884;2023-02-12T01:49:43;4.20;1.00
56137;DHT22;42008;52.934;5.884;2023-02-12T01:52:19;5.20;1.00
56137;DHT22;42008;52.934;5.884;2023-02-12T01:54:47;4.70;1.00
56137;DHT22;42008;52.934;5.884;2023-02-12T01:57:13;4.60;1.00
56137;DHT22;42008;52.934;5.884;2023-02-12T01:59:42;4.20;1.00
56137;DHT22;42008;52.934;5.884;2023-02-12T02:02:09;4.90;1.00
56137;DHT22;42008;52.934;5.884;2023-02-12T02:04:42;4.70;1.00
56137;DHT22;42008;52.934;5.884;2023-02-12T02:07:11;4.60;1.00
56137;DHT22;42008;52.934;5.884;2023-02-12T02:09:38;4.60;1.00
56137;DHT22;42008;52.934;5.884;2023-02-12T02:12:05;4.10;1.00
56137;DHT22;42008;52.934;5.884;2023-02-12T02:14:51;3.70;1.00
56137;DHT22;42008;52.934;5.884;2023-02-12T02:20:15;5.40;1.00
56137;DHT22;42008;52.934;5.884;2023-02-12T02:28:53;3.70;1.00
56137;DHT22;42008;52.934;5.884;2023-02-12T02:32:02;3.90;1.00
56137;DHT22;42008;52.934;5.884;2023-02-12T02:37:44;4.90;1.00
56137;DHT22;42008;52.934;5.884;2023-02-12T02:45:27;5.40;1.00
56137;DHT22;42008;52.934;5.884;2023-02-12T02:48:02;3.90;1.00
56137;DHT22;42008;52.934;5.884;2023-02-12T02:50:32;4.60;1.00
56137;DHT22;42008;52.934;5.884;2023-02-12T02:53:05;4.80;1.00
56137;DHT22;42008;52.934;5.884;2023-02-12T02:55:37;5.00;1.00
56137;DHT22;42008;52.934;5.884;2023-02-12T02:58:09;4.60;1.00
56137;DHT22;42008;52.934;5.884;2023-02-12T03:00:56;4.20;1.00
56137;DHT22;42008;52.934;5.884;2023-02-12T03:03:37;4.90;1.00
56137;DHT22;42008;52.934;5.884;2023-02-12T03:06:13;3.90;1.00
56137;DHT22;42008;52.934;5.884;2023-02-12T03:08:47;3.80;1.00
56137;DHT22;42008;52.934;5.884;2023-02-12T03:11:14;4.90;1.00
56137;DHT22;42008;52.934;5.884;2023-02-12T03:14:07;4.50;1.00
56137;DHT22;42008;52.934;5.884;2023-02-12T03:16:38;4.10;1.00
56137;DHT22;42008;52.934;5.884;2023-02-12T03:19:10;4.40;1.00
56137;DHT22;42008;52.934;5.884;2023-02-12T03:21:40;4.00;1.00
56137;DHT22;42008;52.934;5.884;2023-02-12T03:24:45;3.70;1.00
56137;DHT22;42008;52.934;5.884;2023-02-12T03:27:19;3.60;1.00
56137;DHT22;42008;52.934;5.884;2023-02-12T03:29:46;5.30;1.00
56137;DHT22;42008;52.934;5.884;2023-02-12T03:32:32;4.30;1.00
56137;DHT22;42008;52.934;5.884;2023-02-12T03:35:20;4.10;1.00
56137;DHT22;42008;52.934;5.884;2023-02-12T03:40:51;4.60;1.00
56137;DHT22;42008;52.934;5.884;2023-02-12T03:43:28;4.70;1.00
56137;DHT22;42008;52.934;5.884;2023-02-12T03:48:30;5.40;1.00
56137;DHT22;42008;52.934;5.884;2023-02-12T03:51:19;3.80;1.00
56137;DHT22;42008;52.934;5.884;2023-02-12T03:53:47;4.10;1.00
56137;DHT22;42008;52.934;5.884;2023-02-12T03:56:18;3.40;1.00
56137;DHT22;42008;52.934;5.884;2023-02-12T03:58:45;3.30;1.00
56137;DHT22;42008;52.934;5.884;2023-02-12T04:01:12;3.30;1.00
56137;DHT22;42008;52.934;5.884;2023-02-12T04:03:38;4.70;1.00
56137;DHT22;42008;52.934;5.884;2023-02-12T04:06:04;4.70;1.00
56137;DHT22;42008;52.934;5.884;2023-02-12T04:08:30;3.60;1.00
56137;DHT22;42008;52.934;5.884;2023-02-12T04:14:45;3.90;1.00
56137;DHT22;42008;52.934;5.884;2023-02-12T04:16:57;3.80;1.00
56137;DHT22;42008;52.934;5.884;2023-02-12T04:30:44;4.10;1.00
56137;DHT22;42008;52.934;5.884;2023-02-12T04:33:15;3.70;1.00
56137;DHT22;42008;52.934;5.884;2023-02-12T04:35:58;3.70;1.00
56137;DHT22;42008;52.934;5.884;2023-02-12T04:38:29;3.50;1.00
56137;DHT22;42008;52.934;5.884;2023-02-12T04:40:57;4.60;1.00
56137;DHT22;42008;52.934;5.884;2023-02-12T04:43:31;4.70;1.00
56137;DHT22;42008;52.934;5.884;2023-02-12T04:45:59;4.60;1.00
56137;DHT22;42008;52.934;5.884;2023-02-12T04:48:25;4.80;1.00
56137;DHT22;42008;52.934;5.884;2023-02-12T04:50:50;5.30;1.00
56137;DHT22;42008;52.934;5.884;2023-02-12T04:53:16;3.30;1.00
56137;DHT22;42008;52.934;5.884;2023-02-12T04:55:42;4.70;1.00
56137;DHT22;42008;52.934;5.884;2023-02-12T04:58:07;4.70;23.40
56137;DHT22;42008;52.934;5.884;2023-02-12T05:00:33;4.90;45.00
56137;DHT22;42008;52.934;5.884;2023-02-12T05:02:59;4.40;57.60
56137;DHT22;42008;52.934;5.884;2023-02-12T05:05:25;4.30;61.80
56137;DHT22;42008;52.934;5.884;2023-02-12T05:07:51;4.60;68.90
56137;DHT22;42008;52.934;5.884;2023-02-12T05:10:17;4.90;58.90
56137;DHT22;42008;52.934;5.884;2023-02-12T05:12:43;4.20;49.00
56137;DHT22;42008;52.934;5.884;2023-02-12T05:15:09;5.20;45.50
56137;DHT22;42008;52.934;5.884;2023-02-12T05:17:34;4.10;43.90
56137;DHT22;42008;52.934;5.884;2023-02-12T05:20:00;4.40;39.90
56137;DHT22;42008;52.934;5.884;2023-02-12T05:22:26;4.60;32.40
56137;DHT22;42008;52.934;5.884;2023-02-12T05:24:51;4.30;28.70
56137;DHT22;42008;52.934;5.884;2023-02-12T05:27:17;4.20;30.40
56137;DHT22;42008;52.934;5.884;2023-02-12T05:29:43;4.10;38.70
56137;DHT22;42008;52.934;5.884;2023-02-12T05:32:08;4.50;41.60
56137;DHT22;42008;52.934;5.884;2023-02-12T05:34:35;4.20;90.10
56137;DHT22;42008;52.934;5.884;2023-02-12T05:37:00;5.40;98.60
56137;DHT22;42008;52.934;5.884;2023-02-12T05:39:26;4.40;99.90
56137;DHT22;42008;52.934;5.884;2023-02-12T05:41:52;5.00;99.90
56137;DHT22;42008;52.934;5.884;2023-02-12T05:44:17;4.70;99.90
56137;DHT22;42008;52.934;5.884;2023-02-12T05:46:43;4.90;99.90
56137;DHT22;42008;52.934;5.884;2023-02-12T05:49:09;4.20;99.90
56137;DHT22;42008;52.934;5.884;2023-02-12T05:51:35;5.20;99.90
56137;DHT22;42008;52.934;5.884;2023-02-12T05:54:03;5.80;99.90
56137;DHT22;42008;52.934;5.884;2023-02-12T05:56:31;5.30;99.90
56137;DHT22;42008;52.934;5.884;2023-02-12T05:59:06;4.50;99.90
56137;DHT22;42008;52.934;5.884;2023-02-12T06:01:36;5.00;99.90
56137;DHT22;42008;52.934;5.884;2023-02-12T06:04:04;6.20;99.90
56137;DHT22;42008;52.934;5.884;2023-02-12T06:06:30;5.30;99.90
56137;DHT22;42008;52.934;5.884;2023-02-12T06:08:57;5.70;99.90
56137;DHT22;42008;52.934;5.884;2023-02-12T06:11:23;5.60;99.90
56137;DHT22;42008;52.934;5.884;2023-02-12T06:13:49;6.20;99.90
56137;DHT22;42008;52.934;5.884;2023-02-12T06:16:26;6.40;99.90
56137;DHT22;42008;52.934;5.884;2023-02-12T06:18:53;6.20;99.90
56137;DHT22;42008;52.934;5.884;2023-02-12T06:21:19;5.20;99.90
56137;DHT22;42008;52.934;5.884;2023-02-12T06:23:46;5.20;99.90
56137;DHT22;42008;52.934;5.884;2023-02-12T06:26:12;6.50;99.90
56137;DHT22;42008;52.934;5.884;2023-02-12T06:28:38;6.00;99.90
56137;DHT22;42008;52.934;5.884;2023-02-12T06:31:04;6.00;1.00
56137;DHT22;42008;52.934;5.884;2023-02-12T06:33:30;6.20;1.00
56137;DHT22;42008;52.934;5.884;2023-02-12T06:35:55;6.00;1.00
56137;DHT22;42008;52.934;5.884;2023-02-12T06:38:21;6.70;1.00
56137;DHT22;42008;52.934;5.884;2023-02-12T06:40:47;5.90;1.00
56137;DHT22;42008;52.934;5.884;2023-02-12T06:43:12;6.30;1.00
56137;DHT22;42008;52.934;5.884;2023-02-12T06:45:38;6.00;1.00
56137;DHT22;42008;52.934;5.884;2023-02-12T06:48:03;6.20;1.00
56137;DHT22;42008;52.934;5.884;2023-02-12T06:50:29;6.00;1.00
56137;DHT22;42008;52.934;5.884;2023-02-12T06:52:56;6.20;1.00
56137;DHT22;42008;52.934;5.884;2023-02-12T06:55:22;6.50;1.00
56137;DHT22;42008;52.934;5.884;2023-02-12T06:57:47;6.20;1.00
56137;DHT22;42008;52.934;5.884;2023-02-12T07:00:13;6.10;1.00
56137;DHT22;42008;52.934;5.884;2023-02-12T07:02:39;6.70;1.00
56137;DHT22;42008;52.934;5.884;2023-02-12T07:05:04;6.60;1.00
56137;DHT22;42008;52.934;5.884;2023-02-12T07:07:30;6.60;1.00
56137;DHT22;42008;52.934;5.884;2023-02-12T07:09:56;6.50;1.00
56137;DHT22;42008;52.934;5.884;2023-02-12T07:12:21;6.90;1.00
56137;DHT22;42008;52.934;5.884;2023-02-12T07:14:47;6.30;1.00
56137;DHT22;42008;52.934;5.884;2023-02-12T07:17:12;7.30;1.00
56137;DHT22;42008;52.934;5.884;2023-02-12T07:19:38;7.50;1.00
56137;DHT22;42008;52.934;5.884;2023-02-12T07:22:04;6.40;1.00
56137;DHT22;42008;52.934;5.884;2023-02-12T07:24:29;6.80;1.00
56137;DHT22;42008;52.934;5.884;2023-02-12T07:26:55;6.90;1.00
56137;DHT22;42008;52.934;5.884;2023-02-12T07:29:20;7.40;1.00
56137;DHT22;42008;52.934;5.884;2023-02-12T07:31:46;6.60;1.00
56137;DHT22;42008;52.934;5.884;2023-02-12T07:34:12;7.30;1.00
56137;DHT22;42008;52.934;5.884;2023-02-12T07:36:37;6.70;1.00
56137;DHT22;42008;52.934;5.884;2023-02-12T07:39:03;6.60;1.00
56137;DHT22;42008;52.934;5.884;2023-02-12T07:41:31;6.70;1.00
56137;DHT22;42008;52.934;5.884;2023-02-12T07:44:00;7.50;1.00
56137;DHT22;42008;52.934;5.884;2023-02-12T07:46:30;7.20;1.00
56137;DHT22;42008;52.934;5.884;2023-02-12T07:48:57;7.40;1.00
56137;DHT22;42008;52.934;5.884;2023-02-12T07:51:25;7.50;1.00
56137;DHT22;42008;52.934;5.884;2023-02-12T07:53:51;7.60;1.00
56137;DHT22;42008;52.934;5.884;2023-02-12T07:56:20;7.10;1.00
56137;DHT22;42008;52.934;5.884;2023-02-12T07:58:48;7.10;1.00
56137;DHT22;42008;52.934;5.884;2023-02-12T08:01:17;8.10;1.00
56137;DHT22;42008;52.934;5.884;2023-02-12T08:03:44;7.30;1.00
56137;DHT22;42008;52.934;5.884;2023-02-12T08:06:12;7.10;1.00
56137;DHT22;42008;52.934;5.884;2023-02-12T08:08:38;7.30;1.00
56137;DHT22;42008;52.934;5.884;2023-02-12T08:11:05;8.40;1.00
56137;DHT22;42008;52.934;5.884;2023-02-12T08:13:32;8.00;1.00
56137;DHT22;42008;52.934;5.884;2023-02-12T08:15:59;8.40;1.00
56137;DHT22;42008;52.934;5.884;2023-02-12T08:18:25;8.10;1.00
56137;DHT22;42008;52.934;5.884;2023-02-12T08:20:51;7.90;1.00
56137;DHT22;42008;52.934;5.884;2023-02-12T08:23:16;7.30;1.00
56137;DHT22;42008;52.934;5.884;2023-02-12T08:25:42;7.10;1.00
56137;DHT22;42008;52.934;5.884;2023-02-12T08:28:07;8.10;1.00
56137;DHT22;42008;52.934;5.884;2023-02-12T08:30:33;8.00;1.00
56137;DHT22;42008;52.934;5.884;2023-02-12T08:32:58;8.90;1.00
56137;DHT22;42008;52.934;5.884;2023-02-12T08:35:24;8.10;1.00
56137;DHT22;42008;52.934;5.884;2023-02-12T08:37:49;7.30;1.00
56137;DHT22;42008;52.934;5.884;2023-02-12T08:40:15;8.00;1.00
56137;DHT22;42008;52.934;5.884;2023-02-12T08:42:40;8.00;99.90
56137;DHT22;42008;52.934;5.884;2023-02-12T08:45:06;8.10;1.00
56137;DHT22;42008;52.934;5.884;2023-02-12T08:47:32;8.30;1.00
56137;DHT22;42008;52.934;5.884;2023-02-12T08:49:58;8.20;99.90
56137;DHT22;42008;52.934;5.884;2023-02-12T08:52:23;8.30;1.00
56137;DHT22;42008;52.934;5.884;2023-02-12T08:54:49;8.60;1.00
56137;DHT22;42008;52.934;5.884;2023-02-12T08:57:14;8.10;1.00
56137;DHT22;42008;52.934;5.884;2023-02-12T08:59:40;8.70;1.00
56137;DHT22;42008;52.934;5.884;2023-02-12T09:02:05;9.30;1.00
56137;DHT22;42008;52.934;5.884;2023-02-12T09:04:33;8.10;1.00
56137;DHT22;42008;52.934;5.884;2023-02-12T09:07:00;7.80;1.00
56137;DHT22;42008;52.934;5.884;2023-02-12T09:09:26;8.30;1.00
56137;DHT22;42008;52.934;5.884;2023-02-12T09:11:51;8.80;1.00
56137;DHT22;42008;52.934;5.884;2023-02-12T09:14:18;9.40;1.00
56137;DHT22;42008;52.934;5.884;2023-02-12T09:16:48;9.30;1.00
56137;DHT22;42008;52.934;5.884;2023-02-12T09:19:14;10.00;1.00
56137;DHT22;42008;52.934;5.884;2023-02-12T09:21:40;8.50;99.90
56137;DHT22;42008;52.934;5.884;2023-02-12T09:24:07;9.30;99.90
56137;DHT22;42008;52.934;5.884;2023-02-12T09:26:32;8.50;1.00
56137;DHT22;42008;52.934;5.884;2023-02-12T09:29:00;9.40;99.90
56137;DHT22;42008;52.934;5.884;2023-02-12T09:31:28;9.70;99.90
56137;DHT22;42008;52.934;5.884;2023-02-12T09:33:57;9.40;99.90
56137;DHT22;42008;52.934;5.884;2023-02-12T09:36:23;9.50;99.90
56137;DHT22;42008;52.934;5.884;2023-02-12T09:38:49;9.60;99.90
56137;DHT22;42008;52.934;5.884;2023-02-12T09:47:02;9.30;99.90
56137;DHT22;42008;52.934;5.884;2023-02-12T09:52:20;10.10;99.90
56137;DHT22;42008;52.934;5.884;2023-02-12T09:54:47;8.80;99.90
56137;DHT22;42008;52.934;5.884;2023-02-12T09:57:22;9.30;99.90
56137;DHT22;42008;52.934;5.884;2023-02-12T09:59:57;9.70;99.90
56137;DHT22;42008;52.934;5.884;2023-02-12T10:02:24;9.80;1.00
56137;DHT22;42008;52.934;5.884;2023-02-12T10:04:50;9.10;1.00
56137;DHT22;42008;52.934;5.884;2023-02-12T10:13:06;8.20;99.90
56137;DHT22;42008;52.934;5.884;2023-02-12T10:15:59;9.10;1.00
56137;DHT22;42008;52.934;5.884;2023-02-12T10:21:10;9.10;1.00
56137;DHT22;42008;52.934;5.884;2023-02-12T10:23:59;8.80;1.00
56137;DHT22;42008;52.934;5.884;2023-02-12T10:26:33;8.40;99.90
56137;DHT22;42008;52.934;5.884;2023-02-12T10:29:10;9.30;99.90
56137;DHT22;42008;52.934;5.884;2023-02-12T10:31:42;9.40;99.90
56137;DHT22;42008;52.934;5.884;2023-02-12T10:34:31;9.40;99.90
56137;DHT22;42008;52.934;5.884;2023-02-12T10:37:02;9.60;99.90
56137;DHT22;42008;52.934;5.884;2023-02-12T10:39:32;8.90;99.90
56137;DHT22;42008;52.934;5.884;2023-02-12T10:42:07;9.70;1.00
56137;DHT22;42008;52.934;5.884;2023-02-12T10:44:34;8.30;1.00
56137;DHT22;42008;52.934;5.884;2023-02-12T10:47:00;8.10;1.00
56137;DHT22;42008;52.934;5.884;2023-02-12T10:49:26;9.00;13.00
56137;DHT22;42008;52.934;5.884;2023-02-12T10:54:44;10.00;1.00
56137;DHT22;42008;52.934;5.884;2023-02-12T10:57:26;9.10;1.00
56137;DHT22;42008;52.934;5.884;2023-02-12T11:00:19;8.90;1.00
56137;DHT22;42008;52.934;5.884;2023-02-12T11:03:41;8.40;1.00
56137;DHT22;42008;52.934;5.884;2023-02-12T11:05:48;9.60;1.00
56137;DHT22;42008;52.934;5.884;2023-02-12T11:08:33;9.20;1.00
56137;DHT22;42008;52.934;5.884;2023-02-12T11:13:32;9.60;99.90
56137;DHT22;42008;52.934;5.884;2023-02-12T11:15:58;9.30;99.90
56137;DHT22;42008;52.934;5.884;2023-02-12T11:18:29;9.70;99.90
56137;DHT22;42008;52.934;5.884;2023-02-12T11:21:10;9.30;87.00
56137;DHT22;42008;52.934;5.884;2023-02-12T11:23:41;8.90;22.10
56137;DHT22;42008;52.934;5.884;2023-02-12T11:29:15;9.50;99.90
56137;DHT22;42008;52.934;5.884;2023-02-12T11:31:41;8.30;94.60
56137;DHT22;42008;52.934;5.884;2023-02-12T11:34:17;9.60;1.00
56137;DHT22;42008;52.934;5.884;2023-02-12T11:36:52;9.60;1.00
56137;DHT22;42008;52.934;5.884;2023-02-12T11:39:32;8.20;1.00
56137;DHT22;42008;52.934;5.884;2023-02-12T11:42:01;8.10;1.00
56137;DHT22;42008;52.934;5.884;2023-02-12T11:44:36;8.20;1.00
56137;DHT22;42008;52.934;5.884;2023-02-12T11:47:09;9.20;1.00
56137;DHT22;42008;52.934;5.884;2023-02-12T11:49:42;8.20;1.00
56137;DHT22;42008;52.934;5.884;2023-02-12T11:52:20;8.40;1.00
56137;DHT22;42008;52.934;5.884;2023-02-12T11:54:48;8.60;1.00
56137;DHT22;42008;52.934;5.884;2023-02-12T12:00:01;9.20;1.00
56137;DHT22;42008;52.934;5.884;2023-02-12T12:02:34;9.10;1.00
56137;DHT22;42008;52.934;5.884;2023-02-12T12:05:14;9.30;99.90
56137;DHT22;42008;52.934;5.884;2023-02-12T12:07:46;9.00;99.90
56137;DHT22;42008;52.934;5.884;2023-02-12T12:12:53;7.90;99.90
56137;DHT22;42008;52.934;5.884;2023-02-12T12:15:32;9.40;99.90
56137;DHT22;42008;52.934;5.884;2023-02-12T12:21:33;8.20;1.00
56137;DHT22;42008;52.934;5.884;2023-02-12T12:24:16;9.10;99.90
56137;DHT22;42008;52.934;5.884;2023-02-12T12:26:46;9.00;1.00
56137;DHT22;42008;52.934;5.884;2023-02-12T12:29:25;8.70;1.00
56137;DHT22;42008;52.934;5.884;2023-02-12T12:31:58;9.20;1.00
56137;DHT22;42008;52.934;5.884;2023-02-12T12:34:27;9.10;1.00
56137;DHT22;42008;52.934;5.884;2023-02-12T12:52:57;9.80;1.00
56137;DHT22;42008;52.934;5.884;2023-02-12T12:55:45;9.80;1.00
56137;DHT22;42008;52.934;5.884;2023-02-12T12:58:30;10.00;1.00
56137;DHT22;42008;52.934;5.884;2023-02-12T13:06:13;8.40;99.90
56137;DHT22;42008;52.934;5.884;2023-02-12T13:11:41;9.10;42.10
56137;DHT22;42008;52.934;5.884;2023-02-12T13:17:14;8.30;99.90
56137;DHT22;42008;52.934;5.884;2023-02-12T13:19:54;10.10;99.90
56137;DHT22;42008;52.934;5.884;2023-02-12T13:25:43;9.10;99.90
56137;DHT22;42008;52.934;5.884;2023-02-12T13:28:17;9.30;1.00
56137;DHT22;42008;52.934;5.884;2023-02-12T13:30:49;8.10;54.00
56137;DHT22;42008;52.934;5.884;2023-02-12T13:33:21;9.00;99.90
56137;DHT22;42008;52.934;5.884;2023-02-12T13:35:51;9.20;99.90
56137;DHT22;42008;52.934;5.884;2023-02-12T13:38:22;7.80;41.20
56137;DHT22;42008;52.934;5.884;2023-02-12T13:40:52;8.30;1.00
56137;DHT22;42008;52.934;5.884;2023-02-12T13:43:23;8.80;99.90
56137;DHT22;42008;52.934;5.884;2023-02-12T13:46:23;8.50;75.20
56137;DHT22;42008;52.934;5.884;2023-02-12T13:49:05;8.10;1.00
56137;DHT22;42008;52.934;5.884;2023-02-12T13:51:56;8.20;1.00
56137;DHT22;42008;52.934;5.884;2023-02-12T13:54:47;8.40;83.40
56137;DHT22;42008;52.934;5.884;2023-02-12T13:57:16;8.00;95.00
56137;DHT22;42008;52.934;5.884;2023-02-12T13:59:44;8.60;99.90
56137;DHT22;42008;52.934;5.884;2023-02-12T14:07:46;8.40;99.90
56137;DHT22;42008;52.934;5.884;2023-02-12T14:13:20;8.10;99.90
56137;DHT22;42008;52.934;5.884;2023-02-12T14:15:52;9.20;99.90
56137;DHT22;42008;52.934;5.884;2023-02-12T14:18:27;9.40;78.80
56137;DHT22;42008;52.934;5.884;2023-02-12T14:23:45;8.50;99.90
56137;DHT22;42008;52.934;5.884;2023-02-12T14:26:12;7.90;1.00
56137;DHT22;42008;52.934;5.884;2023-02-12T14:28:52;8.10;71.90
56137;DHT22;42008;52.934;5.884;2023-02-12T14:31:34;9.30;99.90
56137;DHT22;42008;52.934;5.884;2023-02-12T14:41:27;8.30;99.90
56137;DHT22;42008;52.934;5.884;2023-02-12T14:54:50;8.70;99.90
56137;DHT22;42008;52.934;5.884;2023-02-12T14:57:35;8.60;99.90
56137;DHT22;42008;52.934;5.884;2023-02-12T15:05:22;7.70;99.90
56137;DHT22;42008;52.934;5.884;2023-02-12T15:10:22;8.20;99.90
56137;DHT22;42008;52.934;5.884;2023-02-12T15:13:04;7.30;99.90
56137;DHT22;42008;52.934;5.884;2023-02-12T15:15:41;7.80;99.90
56137;DHT22;42008;52.934;5.884;2023-02-12T15:21:23;7.80;99.90
56137;DHT22;42008;52.934;5.884;2023-02-12T15:26:46;7.90;99.90
56137;DHT22;42008;52.934;5.884;2023-02-12T15:29:23;8.10;99.90
56137;DHT22;42008;52.934;5.884;2023-02-12T15:31:55;8.40;99.90
56137;DHT22;42008;52.934;5.884;2023-02-12T15:34:24;8.10;1.00
56137;DHT22;42008;52.934;5.884;2023-02-12T15:36:51;7.50;1.00
56137;DHT22;42008;52.934;5.884;2023-02-12T15:39:20;7.90;1.00
56137;DHT22;42008;52.934;5.884;2023-02-12T15:41:47;7.50;1.00
56137;DHT22;42008;52.934;5.884;2023-02-12T15:47:28;7.50;1.00
56137;DHT22;42008;52.934;5.884;2023-02-12T15:49:51;8.10;99.90
56137;DHT22;42008;52.934;5.884;2023-02-12T15:52:29;8.30;1.00
56137;DHT22;42008;52.934;5.884;2023-02-12T15:54:59;7.10;1.00
56137;DHT22;42008;52.934;5.884;2023-02-12T15:57:25;7.10;1.00
56137;DHT22;42008;52.934;5.884;2023-02-12T15:59:54;7.50;1.00
56137;DHT22;42008;52.934;5.884;2023-02-12T16:02:25;7.60;1.00
56137;DHT22;42008;52.934;5.884;2023-02-12T16:04:53;7.80;1.00
56137;DHT22;42008;52.934;5.884;2023-02-12T16:07:19;7.70;1.00
56137;DHT22;42008;52.934;5.884;2023-02-12T16:09:45;7.00;1.00
56137;DHT22;42008;52.934;5.884;2023-02-12T16:12:14;7.10;1.00
56137;DHT22;42008;52.934;5.884;2023-02-12T16:17:34;7.40;1.00
56137;DHT22;42008;52.934;5.884;2023-02-12T16:22:45;7.90;1.00
56137;DHT22;42008;52.934;5.884;2023-02-12T16:25:17;8.10;1.00
56137;DHT22;42008;52.934;5.884;2023-02-12T16:28:37;7.50;18.10
56137;DHT22;42008;52.934;5.884;2023-02-12T16:30:44;8.30;27.40
56137;DHT22;42008;52.934;5.884;2023-02-12T16:33:40;7.40;65.90
56137;DHT22;42008;52.934;5.884;2023-02-12T16:38:47;7.70;99.90
56137;DHT22;42008;52.934;5.884;2023-02-12T16:43:42;8.10;99.90
56137;DHT22;42008;52.934;5.884;2023-02-12T16:46:08;7.60;99.90
56137;DHT22;42008;52.934;5.884;2023-02-12T16:48:45;7.40;99.90
56137;DHT22;42008;52.934;5.884;2023-02-12T16:53:52;6.80;99.90
56137;DHT22;42008;52.934;5.884;2023-02-12T16:56:20;7.60;99.90
56137;DHT22;42008;52.934;5.884;2023-02-12T16:58:51;7.70;99.90
56137;DHT22;42008;52.934;5.884;2023-02-12T17:01:39;7.50;99.90
56137;DHT22;42008;52.934;5.884;2023-02-12T17:04:13;7.60;99.90
56137;DHT22;42008;52.934;5.884;2023-02-12T17:06:39;7.40;99.90
56137;DHT22;42008;52.934;5.884;2023-02-12T17:09:05;7.10;99.90
56137;DHT22;42008;52.934;5.884;2023-02-12T17:11:30;7.20;99.90
56137;DHT22;42008;52.934;5.884;2023-02-12T17:13:56;7.80;99.90
56137;DHT22;42008;52.934;5.884;2023-02-12T17:16:22;6.60;99.90
56137;DHT22;42008;52.934;5.884;2023-02-12T17:18:48;7.20;99.90
56137;DHT22;42008;52.934;5.884;2023-02-12T17:21:21;7.40;99.90
56137;DHT22;42008;52.934;5.884;2023-02-12T17:23:47;6.80;99.90
56137;DHT22;42008;52.934;5.884;2023-02-12T17:26:13;7.20;99.90
56137;DHT22;42008;52.934;5.884;2023-02-12T17:28:39;7.60;99.90
56137;DHT22;42008;52.934;5.884;2023-02-12T17:31:07;7.20;99.90
56137;DHT22;42008;52.934;5.884;2023-02-12T17:33:32;7.00;99.90
56137;DHT22;42008;52.934;5.884;2023-02-12T17:35:58;6.50;99.90
56137;DHT22;42008;52.934;5.884;2023-02-12T17:38:24;7.00;99.90
56137;DHT22;42008;52.934;5.884;2023-02-12T17:40:50;7.50;99.90
56137;DHT22;42008;52.934;5.884;2023-02-12T17:43:15;7.40;99.90
56137;DHT22;42008;52.934;5.884;2023-02-12T17:45:42;7.60;99.90
56137;DHT22;42008;52.934;5.884;2023-02-12T17:48:09;7.40;99.90
56137;DHT22;42008;52.934;5.884;2023-02-12T17:50:35;7.40;99.90
56137;DHT22;42008;52.934;5.884;2023-02-12T17:53:00;7.50;99.90
56137;DHT22;42008;52.934;5.884;2023-02-12T17:55:26;7.60;99.90
56137;DHT22;42008;52.934;5.884;2023-02-12T17:57:53;7.50;99.90
56137;DHT22;42008;52.934;5.884;2023-02-12T18:00:19;7.40;99.90
56137;DHT22;42008;52.934;5.884;2023-02-12T18:02:45;6.80;99.90
56137;DHT22;42008;52.934;5.884;2023-02-12T18:05:11;7.50;1.00
56137;DHT22;42008;52.934;5.884;2023-02-12T18:07:37;7.20;1.00
56137;DHT22;42008;52.934;5.884;2023-02-12T18:10:04;7.10;1.00
56137;DHT22;42008;52.934;5.884;2023-02-12T18:12:31;6.60;1.00
56137;DHT22;42008;52.934;5.884;2023-02-12T18:14:58;7.70;1.00
56137;DHT22;42008;52.934;5.884;2023-02-12T18:17:24;6.60;1.00
56137;DHT22;42008;52.934;5.884;2023-02-12T18:19:49;6.60;1.00
56137;DHT22;42008;52.934;5.884;2023-02-12T18:22:15;7.20;1.00
56137;DHT22;42008;52.934;5.884;2023-02-12T18:24:40;7.70;1.00
56137;DHT22;42008;52.934;5.884;2023-02-12T18:27:08;7.40;1.00
56137;DHT22;42008;52.934;5.884;2023-02-12T18:29:34;7.70;1.00
56137;DHT22;42008;52.934;5.884;2023-02-12T18:31:59;7.00;99.90
56137;DHT22;42008;52.934;5.884;2023-02-12T18:34:25;7.50;99.90
56137;DHT22;42008;52.934;5.884;2023-02-12T18:36:51;7.60;1.00
56137;DHT22;42008;52.934;5.884;2023-02-12T18:39:16;7.20;1.00
56137;DHT22;42008;52.934;5.884;2023-02-12T18:41:42;7.20;1.00
56137;DHT22;42008;52.934;5.884;2023-02-12T18:44:08;7.00;1.00
56137;DHT22;42008;52.934;5.884;2023-02-12T18:46:33;6.30;1.00
56137;DHT22;42008;52.934;5.884;2023-02-12T18:48:59;6.90;1.00
56137;DHT22;42008;52.934;5.884;2023-02-12T18:51:27;6.50;1.00
56137;DHT22;42008;52.934;5.884;2023-02-12T18:54:01;6.30;1.00